createdAt,value
2023-04-28T00:00:58.408Z,13.93
2023-04-28T00:03:24.967Z,15.32
2023-04-28T00:05:52.936Z,12.38
2023-04-28T00:08:21.679Z,11.45
2023-04-28T00:10:48.018Z,11.88
2023-04-28T00:13:14.327Z,10.43
2023-04-28T00:15:41.037Z,10.73
2023-04-28T00:18:07.421Z,11.82
2023-04-28T00:20:33.767Z,13.35
2023-04-28T00:23:00.151Z,11.45
2023-04-28T00:25:26.534Z,11.32
2023-04-28T00:27:52.906Z,12.25
2023-04-28T00:30:19.367Z,11.13
2023-04-28T00:32:45.722Z,11.68
2023-04-28T00:35:12.110Z,12.52
2023-04-28T00:37:38.863Z,14.00
2023-04-28T00:40:05.830Z,13.38
2023-04-28T00:42:32.192Z,12.40
2023-04-28T00:44:59.049Z,13.73
2023-04-28T00:47:25.445Z,11.77
2023-04-28T00:49:52.194Z,14.32
2023-04-28T00:52:18.633Z,13.32
2023-04-28T00:54:44.978Z,12.60
2023-04-28T00:57:11.397Z,11.90
2023-04-28T00:59:38.168Z,11.32
2023-04-28T01:02:06.425Z,12.43
2023-04-28T01:04:33.484Z,11.82
2023-04-28T01:07:00.424Z,12.02
2023-04-28T01:09:26.820Z,11.77
2023-04-28T01:11:53.176Z,14.77
2023-04-28T01:14:19.521Z,12.27
2023-04-28T01:16:45.933Z,12.18
2023-04-28T01:19:16.951Z,10.80
2023-04-28T01:21:43.322Z,10.82
2023-04-28T01:24:09.698Z,9.20
2023-04-28T01:26:36.073Z,7.47
2023-04-28T01:29:02.433Z,7.57
2023-04-28T01:31:30.972Z,7.53
2023-04-28T01:33:57.594Z,6.38
2023-04-28T01:36:23.991Z,6.93
2023-04-28T01:38:50.732Z,8.13
2023-04-28T01:41:17.116Z,8.43
2023-04-28T01:43:43.900Z,8.55
2023-04-28T01:46:10.587Z,9.00
2023-04-28T01:48:36.940Z,7.97
2023-04-28T01:51:03.431Z,6.65
2023-04-28T01:53:29.747Z,6.75
2023-04-28T01:55:56.227Z,8.38
2023-04-28T01:58:22.564Z,6.47
2023-04-28T02:00:48.930Z,6.20
2023-04-28T02:03:15.809Z,5.85
2023-04-28T02:05:42.327Z,5.93
2023-04-28T02:08:08.656Z,6.28
2023-04-28T02:10:34.996Z,5.22
2023-04-28T02:13:01.412Z,5.22
2023-04-28T02:15:27.744Z,3.50
2023-04-28T02:17:54.172Z,3.53
2023-04-28T02:20:20.724Z,2.85
2023-04-28T02:22:47.122Z,2.45
2023-04-28T02:25:13.465Z,2.65
2023-04-28T02:27:39.879Z,2.63
2023-04-28T02:30:06.613Z,2.35
2023-04-28T02:32:33.321Z,2.83
2023-04-28T02:34:59.723Z,2.20
2023-04-28T02:37:26.344Z,3.08
2023-04-28T02:39:53.424Z,3.35
2023-04-28T02:42:19.851Z,3.13
2023-04-28T02:44:46.288Z,3.30
2023-04-28T02:47:12.704Z,3.00
2023-04-28T02:49:39.055Z,3.75
2023-04-28T02:52:05.462Z,4.07
2023-04-28T02:54:34.099Z,3.30
2023-04-28T02:57:01.305Z,2.85
2023-04-28T02:59:27.661Z,2.70
2023-04-28T03:01:54.044Z,1.77
2023-04-28T03:04:21.036Z,1.83
2023-04-28T03:06:47.755Z,1.58
2023-04-28T03:09:14.720Z,1.60
2023-04-28T03:11:41.393Z,0.97
2023-04-28T03:14:07.722Z,1.58
2023-04-28T03:16:34.152Z,1.30
2023-04-28T03:19:00.796Z,1.08
2023-04-28T03:21:27.818Z,0.75
2023-04-28T03:23:54.173Z,1.00
2023-04-28T03:26:20.911Z,1.23
2023-04-28T03:28:47.490Z,0.85
2023-04-28T03:31:13.828Z,0.80
2023-04-28T03:33:40.158Z,0.80
2023-04-28T03:36:06.707Z,0.70
2023-04-28T03:38:33.060Z,0.77
2023-04-28T03:40:59.420Z,0.60
2023-04-28T03:43:25.946Z,0.60
2023-04-28T03:45:52.547Z,0.40
2023-04-28T03:48:19.021Z,0.65
2023-04-28T03:50:45.592Z,0.70
2023-04-28T03:53:12.067Z,0.82
2023-04-28T03:55:38.738Z,0.75
2023-04-28T03:58:05.111Z,1.08
2023-04-28T04:00:31.496Z,1.50
2023-04-28T04:02:58.106Z,1.00
2023-04-28T04:05:24.604Z,1.20
2023-04-28T04:07:51.048Z,1.70
2023-04-28T04:10:17.514Z,1.02
2023-04-28T04:12:43.882Z,1.50
2023-04-28T04:15:10.535Z,1.70
2023-04-28T04:17:37.069Z,3.25
2023-04-28T04:20:03.492Z,2.10
2023-04-28T04:22:29.855Z,1.48
2023-04-28T04:24:56.189Z,1.90
2023-04-28T04:27:22.641Z,3.50
2023-04-28T04:29:48.984Z,0.70
2023-04-28T04:32:15.414Z,1.90
2023-04-28T04:34:41.750Z,0.77
2023-04-28T04:37:08.899Z,0.60
2023-04-28T04:39:35.265Z,0.90
2023-04-28T04:42:13.301Z,0.47
2023-04-28T04:44:43.486Z,0.88
2023-04-28T04:47:09.816Z,1.58
2023-04-28T04:49:36.128Z,0.60
2023-04-28T04:52:03.034Z,2.28
2023-04-28T04:54:30.178Z,0.70
2023-04-28T04:56:56.625Z,0.68
2023-04-28T04:59:23.019Z,0.52
2023-04-28T05:01:49.450Z,1.00
2023-04-28T05:04:16.229Z,0.80
2023-04-28T05:06:43.006Z,1.00
2023-04-28T05:09:09.526Z,0.77
2023-04-28T05:11:35.912Z,0.90
2023-04-28T05:14:02.280Z,0.60
2023-04-28T05:16:28.717Z,0.88
2023-04-28T05:18:55.255Z,0.60
2023-04-28T05:21:21.886Z,0.70
2023-04-28T05:23:48.343Z,0.30
2023-04-28T05:26:14.749Z,0.70
2023-04-28T05:28:41.570Z,0.45
2023-04-28T05:31:08.055Z,0.20
2023-04-28T05:33:34.387Z,0.30
2023-04-28T05:36:00.755Z,0.70
2023-04-28T05:38:27.267Z,1.80
2023-04-28T05:40:54.084Z,0.50
2023-04-28T05:43:20.541Z,1.05
2023-04-28T05:45:47.100Z,0.30
2023-04-28T05:48:13.520Z,0.38
2023-04-28T05:50:39.868Z,2.58
2023-04-28T05:53:07.484Z,0.32
2023-04-28T05:55:34.140Z,0.47
2023-04-28T05:58:00.564Z,1.27
2023-04-28T06:00:26.930Z,0.43
2023-04-28T06:02:53.587Z,1.00
2023-04-28T06:05:20.526Z,0.32
2023-04-28T06:07:48.991Z,0.37
2023-04-28T06:10:16.867Z,1.75
2023-04-28T06:12:43.250Z,0.40
2023-04-28T06:15:09.766Z,0.98
2023-04-28T06:17:36.253Z,0.65
2023-04-28T06:20:02.638Z,0.40
2023-04-28T06:22:29.000Z,0.80
2023-04-28T06:24:55.303Z,1.50
2023-04-28T06:27:21.715Z,1.63
2023-04-28T06:29:48.038Z,2.70
2023-04-28T06:32:14.418Z,2.35
2023-04-28T06:34:42.203Z,2.42
2023-04-28T06:39:35.576Z,3.10
2023-04-28T06:42:02.353Z,1.52
2023-04-28T06:44:28.682Z,1.33
2023-04-28T06:46:55.087Z,2.67
2023-04-28T06:49:22.224Z,1.63
2023-04-28T06:51:48.614Z,1.67
2023-04-28T06:54:15.090Z,2.20
2023-04-28T06:56:41.643Z,4.90
2023-04-28T06:59:08.206Z,2.95
2023-04-28T07:01:34.541Z,4.07
2023-04-28T07:04:01.072Z,3.95
2023-04-28T07:06:27.610Z,4.20
2023-04-28T07:08:54.117Z,5.82
2023-04-28T07:11:20.484Z,5.72
2023-04-28T07:13:49.307Z,5.82
2023-04-28T07:16:15.822Z,4.15
2023-04-28T07:18:42.196Z,4.15
2023-04-28T07:21:08.580Z,3.72
2023-04-28T07:23:34.925Z,4.50
2023-04-28T07:26:01.297Z,6.78
2023-04-28T07:28:27.941Z,4.25
2023-04-28T07:30:54.273Z,5.40
2023-04-28T07:33:20.944Z,4.65
2023-04-28T07:35:48.107Z,4.00
2023-04-28T07:38:14.457Z,7.80
2023-04-28T07:40:42.203Z,5.22
2023-04-28T07:43:08.597Z,3.97
2023-04-28T07:45:39.631Z,3.45
2023-04-28T07:48:06.279Z,3.65
2023-04-28T07:50:33.005Z,3.42
2023-04-28T07:52:59.361Z,4.33
2023-04-28T07:55:25.945Z,3.72
2023-04-28T07:57:52.328Z,3.75
2023-04-28T08:00:19.324Z,4.78
2023-04-28T08:02:45.871Z,3.17
2023-04-28T08:05:12.642Z,3.20
2023-04-28T08:07:39.195Z,3.38
2023-04-28T08:10:05.925Z,2.67
2023-04-28T08:12:32.691Z,3.90
2023-04-28T08:14:59.037Z,2.47
2023-04-28T08:17:25.873Z,3.15
2023-04-28T08:19:52.320Z,3.53
2023-04-28T08:22:18.653Z,2.00
2023-04-28T08:24:45.024Z,3.05
2023-04-28T08:27:11.634Z,2.15
2023-04-28T08:29:38.354Z,3.97
2023-04-28T08:32:06.542Z,4.20
2023-04-28T08:34:33.286Z,2.40
2023-04-28T08:36:59.710Z,3.97
2023-04-28T08:39:26.904Z,5.20
2023-04-28T08:41:53.534Z,4.20
2023-04-28T08:44:20.041Z,4.40
2023-04-28T08:46:47.319Z,4.22
2023-04-28T08:49:17.584Z,4.35
2023-04-28T08:51:56.018Z,9.20
2023-04-28T08:54:26.974Z,7.15
2023-04-28T08:56:54.191Z,6.65
2023-04-28T08:59:20.986Z,9.30
2023-04-28T09:01:50.662Z,9.82
2023-04-28T09:04:18.018Z,10.15
2023-04-28T09:06:46.157Z,8.30
2023-04-28T09:09:33.297Z,5.75
2023-04-28T09:12:02.039Z,6.22
2023-04-28T09:14:29.380Z,4.82
2023-04-28T09:16:56.135Z,7.57
2023-04-28T09:19:22.724Z,5.78
2023-04-28T09:21:56.450Z,5.15
2023-04-28T09:24:32.698Z,5.53
2023-04-28T09:26:59.789Z,6.55
2023-04-28T09:29:26.678Z,6.15
2023-04-28T09:31:54.371Z,6.40
2023-04-28T09:34:22.042Z,4.95
2023-04-28T09:36:48.612Z,4.20
2023-04-28T09:39:14.981Z,4.10
2023-04-28T09:41:42.490Z,3.93
2023-04-28T09:44:11.840Z,3.25
2023-04-28T09:46:38.411Z,3.53
2023-04-28T09:49:04.874Z,4.18
2023-04-28T09:51:31.671Z,4.78
2023-04-28T09:54:00.240Z,4.65
2023-04-28T09:56:30.268Z,5.57
2023-04-28T09:59:00.041Z,4.85
2023-04-28T10:01:32.840Z,5.28
2023-04-28T10:04:00.398Z,4.82
2023-04-28T10:06:27.959Z,5.00
2023-04-28T10:08:55.427Z,5.43
2023-04-28T10:11:22.848Z,8.00
2023-04-28T10:13:49.708Z,5.15
2023-04-28T10:16:16.324Z,6.95
2023-04-28T10:18:43.052Z,5.65
2023-04-28T10:21:10.212Z,5.95
2023-04-28T10:26:03.174Z,4.57
2023-04-28T10:28:29.828Z,4.95
2023-04-28T10:31:09.087Z,4.35
2023-04-28T10:33:35.504Z,4.07
2023-04-28T10:36:01.963Z,4.10
2023-04-28T10:38:28.327Z,3.00
2023-04-28T10:40:55.204Z,3.33
2023-04-28T10:45:56.774Z,3.42
2023-04-28T10:48:43.993Z,4.20
2023-04-28T10:51:12.756Z,3.90
2023-04-28T10:53:45.178Z,3.13
2023-04-28T10:56:11.833Z,3.20
2023-04-28T10:58:42.535Z,3.50
2023-04-28T11:01:21.170Z,2.40
2023-04-28T11:03:47.864Z,2.42
2023-04-28T11:06:29.561Z,3.25
2023-04-28T11:08:57.899Z,3.03
2023-04-28T11:11:32.718Z,2.83
2023-04-28T11:14:18.180Z,3.30
2023-04-28T11:16:50.914Z,3.40
2023-04-28T11:19:22.106Z,3.55
2023-04-28T11:21:48.820Z,2.92
2023-04-28T11:24:15.543Z,4.25
2023-04-28T11:26:42.250Z,3.03
2023-04-28T11:29:09.169Z,3.53
2023-04-28T11:31:35.695Z,3.90
2023-04-28T11:34:16.545Z,3.20
2023-04-28T11:36:43.138Z,4.00
2023-04-28T11:39:10.665Z,3.05
2023-04-28T11:41:38.043Z,3.92
2023-04-28T11:44:13.567Z,3.42
2023-04-28T11:46:46.973Z,3.30
2023-04-28T11:49:15.070Z,3.40
2023-04-28T11:51:43.038Z,3.15
2023-04-28T11:54:12.021Z,2.78
2023-04-28T11:56:39.566Z,2.80
2023-04-28T11:59:09.785Z,3.03
2023-04-28T12:01:44.549Z,3.25
2023-04-28T12:04:11.030Z,3.63
2023-04-28T12:06:37.630Z,3.17
2023-04-28T12:09:15.083Z,3.20
2023-04-28T12:11:52.244Z,3.28
2023-04-28T12:14:18.618Z,3.58
2023-04-28T12:16:45.030Z,3.20
2023-04-28T12:19:11.803Z,2.58
2023-04-28T12:21:39.472Z,2.70
2023-04-28T12:24:15.682Z,1.60
2023-04-28T12:26:42.645Z,5.53
2023-04-28T12:29:10.225Z,7.22
2023-04-28T12:31:53.136Z,5.90
2023-04-28T12:34:19.606Z,6.15
2023-04-28T12:36:46.538Z,5.18
2023-04-28T12:39:16.758Z,5.10
2023-04-28T12:41:43.732Z,5.50
2023-04-28T12:44:10.082Z,7.28
2023-04-28T12:49:04.139Z,8.80
2023-04-28T12:51:30.553Z,8.75
2023-04-28T12:56:23.744Z,7.15
2023-04-28T12:58:50.095Z,7.75
2023-04-28T13:03:44.334Z,6.78
2023-04-28T13:06:11.099Z,6.25
2023-04-28T13:08:37.666Z,6.45
2023-04-28T13:11:12.788Z,5.90
2023-04-28T13:13:48.139Z,6.32
2023-04-28T13:18:41.157Z,5.68
2023-04-28T13:23:33.768Z,5.32
2023-04-28T13:26:00.173Z,6.10
2023-04-28T13:30:52.826Z,4.18
2023-04-28T13:33:19.148Z,4.05
2023-04-28T13:35:45.847Z,3.85
2023-04-28T13:38:12.178Z,3.22
2023-04-28T13:40:38.760Z,3.40
2023-04-28T13:43:05.454Z,3.53
2023-04-28T13:45:32.126Z,3.53
2023-04-28T13:47:58.481Z,4.00
2023-04-28T13:50:24.848Z,4.13
2023-04-28T13:52:51.203Z,4.65
2023-04-28T13:55:17.522Z,4.15
2023-04-28T13:57:43.910Z,4.28
2023-04-28T14:00:10.601Z,4.75
2023-04-28T14:02:37.528Z,4.57
2023-04-28T14:05:04.211Z,4.00
2023-04-28T14:07:30.564Z,4.72
2023-04-28T14:09:56.913Z,3.97
2023-04-28T14:12:23.296Z,4.60
2023-04-28T14:14:49.830Z,3.30
2023-04-28T14:17:16.647Z,2.92
2023-04-28T14:19:44.137Z,3.70
2023-04-28T14:22:10.476Z,3.22
2023-04-28T14:24:36.792Z,2.97
2023-04-28T14:27:03.201Z,3.42
2023-04-28T14:29:29.840Z,2.67
2023-04-28T14:31:56.290Z,3.20
2023-04-28T14:34:22.691Z,3.70
2023-04-28T14:36:49.333Z,4.30
2023-04-28T14:39:16.051Z,4.30
2023-04-28T14:41:42.411Z,5.20
2023-04-28T14:44:09.568Z,4.57
2023-04-28T14:46:36.565Z,4.82
2023-04-28T14:49:03.406Z,5.10
2023-04-28T14:51:30.079Z,5.45
2023-04-28T14:53:56.611Z,4.68
2023-04-28T14:56:22.983Z,4.10
2023-04-28T14:58:49.915Z,4.30
2023-04-28T15:01:18.287Z,4.90
2023-04-28T15:03:44.890Z,4.78
2023-04-28T15:06:11.979Z,5.00
2023-04-28T15:08:40.254Z,5.95
2023-04-28T15:11:06.651Z,4.78
2023-04-28T15:13:32.981Z,4.88
2023-04-28T15:16:00.277Z,4.40
2023-04-28T15:18:26.730Z,4.72
2023-04-28T15:20:53.390Z,5.43
2023-04-28T15:23:20.259Z,5.00
2023-04-28T15:25:47.165Z,5.30
2023-04-28T15:28:13.496Z,5.10
2023-04-28T15:30:40.408Z,4.97
2023-04-28T15:33:06.950Z,5.07
2023-04-28T15:35:33.663Z,4.45
2023-04-28T15:38:00.266Z,4.15
2023-04-28T15:40:26.856Z,3.90
2023-04-28T15:42:53.365Z,5.05
2023-04-28T15:45:21.280Z,4.47
2023-04-28T15:47:49.408Z,4.35
2023-04-28T15:50:18.785Z,4.68
2023-04-28T15:52:46.248Z,5.07
2023-04-28T15:55:13.753Z,5.53
2023-04-28T15:57:40.152Z,5.72
2023-04-28T16:00:06.892Z,6.55
2023-04-28T16:05:00.104Z,5.13
2023-04-28T16:07:26.517Z,5.30
2023-04-28T16:09:53.651Z,5.07
2023-04-28T16:14:49.728Z,4.80
2023-04-28T16:17:16.677Z,4.72
2023-04-28T16:19:43.434Z,5.05
2023-04-28T16:22:09.759Z,5.38
2023-04-28T16:24:42.529Z,5.30
2023-04-28T16:27:09.056Z,5.97
2023-04-28T16:29:35.864Z,6.20
2023-04-28T16:32:02.246Z,6.05
2023-04-28T16:34:28.590Z,6.07
2023-04-28T16:36:55.005Z,5.00
2023-04-28T16:39:21.395Z,6.63
2023-04-28T16:41:47.913Z,5.70
2023-04-28T16:44:15.720Z,4.83
2023-04-28T16:46:42.880Z,4.18
2023-04-28T16:49:09.225Z,4.70
2023-04-28T16:51:35.926Z,4.95
2023-04-28T16:54:02.298Z,5.68
2023-04-28T16:56:29.171Z,6.10
2023-04-28T16:58:55.490Z,4.90
2023-04-28T17:01:22.085Z,5.18
2023-04-28T17:03:50.936Z,6.43
2023-04-28T17:06:17.507Z,4.75
2023-04-28T17:08:43.960Z,5.03
2023-04-28T17:11:10.385Z,4.93
2023-04-28T17:13:36.954Z,5.43
2023-04-28T17:16:04.347Z,4.95
2023-04-28T17:20:58.007Z,4.20
2023-04-28T17:23:24.583Z,5.70
2023-04-28T17:25:50.943Z,8.07
2023-04-28T17:28:17.668Z,5.60
2023-04-28T17:30:47.060Z,6.13
2023-04-28T17:33:14.104Z,5.05
2023-04-28T17:35:40.486Z,5.53
2023-04-28T17:38:06.921Z,4.72
2023-04-28T17:40:33.341Z,5.03
2023-04-28T17:42:59.755Z,5.97
2023-04-28T17:45:26.132Z,4.80
2023-04-28T17:47:52.944Z,6.88
2023-04-28T17:50:19.379Z,5.45
2023-04-28T17:52:45.793Z,5.50
2023-04-28T17:55:13.084Z,4.55
2023-04-28T17:57:39.420Z,4.55
2023-04-28T18:00:06.361Z,5.40
2023-04-28T18:02:33.886Z,4.75
2023-04-28T18:05:00.302Z,3.70
2023-04-28T18:07:27.022Z,4.20
2023-04-28T18:09:53.504Z,3.67
2023-04-28T18:12:19.910Z,3.90
2023-04-28T18:14:46.337Z,4.40
2023-04-28T18:17:12.789Z,5.05
2023-04-28T18:19:39.157Z,3.97
2023-04-28T18:22:05.518Z,4.25
2023-04-28T18:24:31.839Z,4.30
2023-04-28T18:26:58.156Z,4.43
2023-04-28T18:29:24.586Z,3.78
2023-04-28T18:31:51.507Z,3.92
2023-04-28T18:34:18.067Z,3.67
2023-04-28T18:36:44.472Z,4.95
2023-04-28T18:39:11.246Z,3.92
2023-04-28T18:41:37.801Z,3.80
2023-04-28T18:44:04.407Z,3.58
2023-04-28T18:46:31.038Z,3.85
2023-04-28T18:48:57.614Z,4.00
2023-04-28T18:51:24.095Z,3.33
2023-04-28T18:53:50.520Z,3.55
2023-04-28T18:56:17.255Z,3.45
2023-04-28T18:58:43.604Z,3.33
2023-04-28T19:01:16.540Z,3.35
2023-04-28T19:03:43.710Z,3.70
2023-04-28T19:06:11.025Z,2.90
2023-04-28T19:08:39.091Z,4.43
2023-04-28T19:11:06.810Z,4.57
2023-04-28T19:15:59.418Z,4.63
2023-04-28T19:18:26.138Z,3.20
2023-04-28T19:20:59.873Z,3.47
2023-04-28T19:23:26.586Z,5.10
2023-04-28T19:25:54.611Z,3.00
2023-04-28T19:28:21.026Z,3.63
2023-04-28T19:30:47.398Z,4.53
2023-04-28T19:33:13.800Z,4.78
2023-04-28T19:35:40.413Z,5.32
2023-04-28T19:38:06.771Z,5.70
2023-04-28T19:40:33.173Z,4.70
2023-04-28T19:43:00.219Z,4.47
2023-04-28T19:45:26.786Z,5.00
2023-04-28T19:47:53.617Z,4.93
2023-04-28T19:50:20.063Z,6.20
2023-04-28T19:52:46.518Z,3.65
2023-04-28T19:55:13.209Z,4.82
2023-04-28T19:57:39.563Z,4.53
2023-04-28T20:00:08.121Z,4.65
2023-04-28T20:02:34.537Z,5.68
2023-04-28T20:05:00.967Z,4.90
2023-04-28T20:07:27.644Z,5.10
2023-04-28T20:09:56.092Z,8.00
2023-04-28T20:12:23.030Z,19.23
2023-04-28T20:14:49.375Z,28.53
2023-04-28T20:17:16.201Z,12.43
2023-04-28T20:19:43.561Z,9.27
2023-04-28T20:22:10.218Z,12.98
2023-04-28T20:24:37.298Z,15.35
2023-04-28T20:27:04.139Z,13.95
2023-04-28T20:29:37.211Z,10.93
2023-04-28T20:32:04.401Z,12.60
2023-04-28T20:34:31.449Z,17.60
2023-04-28T20:36:59.444Z,17.90
2023-04-28T20:39:26.227Z,13.05
2023-04-28T20:41:52.546Z,14.27
2023-04-28T20:44:18.961Z,12.82
2023-04-28T20:46:45.568Z,9.60
2023-04-28T20:49:12.527Z,13.70
2023-04-28T20:51:42.502Z,14.57
2023-04-28T20:54:08.911Z,16.38
2023-04-28T20:56:35.291Z,16.08
2023-04-28T20:59:01.727Z,13.35
2023-04-28T21:01:28.238Z,11.68
2023-04-28T21:03:54.926Z,13.88
2023-04-28T21:06:21.403Z,14.90
2023-04-28T21:08:47.792Z,10.23
2023-04-28T21:11:14.969Z,6.47
2023-04-28T21:13:42.792Z,5.85
2023-04-28T21:16:19.345Z,6.30
2023-04-28T21:18:47.477Z,6.32
2023-04-28T21:21:14.133Z,7.63
2023-04-28T21:23:40.560Z,7.13
2023-04-28T21:26:07.436Z,5.50
2023-04-28T21:28:34.302Z,6.23
2023-04-28T21:31:02.058Z,5.70
2023-04-28T21:35:54.972Z,6.10
2023-04-28T21:38:21.579Z,5.05
2023-04-28T21:40:48.678Z,4.22
2023-04-28T21:43:15.602Z,4.30
2023-04-28T21:45:42.275Z,5.00
2023-04-28T21:48:08.789Z,3.70
2023-04-28T21:50:36.252Z,4.75
2023-04-28T21:53:02.614Z,5.28
2023-04-28T21:55:29.101Z,3.75
2023-04-28T21:57:58.666Z,4.85
2023-04-28T22:00:26.746Z,4.82
2023-04-28T22:02:53.712Z,3.97
2023-04-28T22:05:20.197Z,4.82
2023-04-28T22:07:46.606Z,5.85
2023-04-28T22:10:13.299Z,4.00
2023-04-28T22:12:40.315Z,4.50
2023-04-28T22:15:06.984Z,5.10
2023-04-28T22:17:33.347Z,5.82
2023-04-28T22:19:59.686Z,4.55
2023-04-28T22:22:26.012Z,6.63
2023-04-28T22:24:52.621Z,6.60
2023-04-28T22:27:18.961Z,3.85
2023-04-28T22:29:45.284Z,4.03
2023-04-28T22:32:11.834Z,4.05
2023-04-28T22:34:38.205Z,4.65
2023-04-28T22:37:04.666Z,5.72
2023-04-28T22:39:31.219Z,3.75
2023-04-28T22:41:58.036Z,3.22
2023-04-28T22:44:24.401Z,3.50
2023-04-28T22:46:50.840Z,3.80
2023-04-28T22:49:17.222Z,3.75
2023-04-28T22:51:43.770Z,3.60
2023-04-28T22:54:10.798Z,3.95
2023-04-28T22:56:37.172Z,3.47
2023-04-28T22:59:03.731Z,4.13
2023-04-28T23:01:30.315Z,6.05
2023-04-28T23:03:56.833Z,4.47
2023-04-28T23:06:23.216Z,3.97
2023-04-28T23:08:49.596Z,4.85
2023-04-28T23:11:15.993Z,5.72
2023-04-28T23:13:42.300Z,5.65
2023-04-28T23:16:08.711Z,5.40
2023-04-28T23:18:35.112Z,5.18
2023-04-28T23:21:01.550Z,7.68
2023-04-28T23:23:27.949Z,6.72
2023-04-28T23:25:55.564Z,4.97
2023-04-28T23:28:21.917Z,5.30
2023-04-28T23:30:48.382Z,4.97
2023-04-28T23:33:15.023Z,5.88
2023-04-28T23:35:42.006Z,7.95
2023-04-28T23:38:08.361Z,7.80
2023-04-28T23:40:34.788Z,6.97
2023-04-28T23:43:01.106Z,8.23
2023-04-28T23:45:27.521Z,6.72
2023-04-28T23:47:53.899Z,8.55
2023-04-28T23:50:20.272Z,13.38
2023-04-28T23:52:47.184Z,16.75
2023-04-28T23:55:13.774Z,15.83
2023-04-28T23:57:40.310Z,9.25
